createdAt,value
2023-05-14T00:00:22.203Z,2217.00
2023-05-14T00:01:21.918Z,2231.00
2023-05-14T00:02:22.012Z,2228.00
2023-05-14T00:03:22.106Z,2209.00
2023-05-14T00:04:22.113Z,2199.00
2023-05-14T00:05:22.150Z,2201.00
2023-05-14T00:06:22.200Z,2206.00
2023-05-14T00:07:22.235Z,2197.00
2023-05-14T00:08:22.306Z,2198.00
2023-05-14T00:09:22.342Z,2170.00
2023-05-14T00:10:22.728Z,2170.00
2023-05-14T00:11:22.450Z,2156.00
2023-05-14T00:12:22.530Z,2157.00
2023-05-14T00:13:22.569Z,2151.00
2023-05-14T00:14:22.645Z,2136.00
2023-05-14T00:15:22.678Z,2125.00
2023-05-14T00:16:22.786Z,2120.00
2023-05-14T00:17:22.848Z,2116.00
2023-05-14T00:18:22.850Z,2104.00
2023-05-14T00:19:22.881Z,2083.00
2023-05-14T00:20:23.203Z,2083.00
2023-05-14T00:21:23.010Z,2083.00
2023-05-14T00:22:23.047Z,2069.00
2023-05-14T00:23:23.110Z,2066.00
2023-05-14T00:24:23.157Z,2066.00
2023-05-14T00:25:23.210Z,2095.00
2023-05-14T00:26:23.309Z,2081.00
2023-05-14T00:27:23.327Z,2089.00
2023-05-14T00:28:23.377Z,2084.00
2023-05-14T00:29:23.423Z,2077.00
2023-05-14T00:30:23.653Z,2052.00
2023-05-14T00:31:23.585Z,2074.00
2023-05-14T00:32:23.591Z,2081.00
2023-05-14T00:33:23.640Z,2074.00
2023-05-14T00:34:23.672Z,2072.00
2023-05-14T00:35:23.731Z,2063.00
2023-05-14T00:36:23.778Z,2067.00
2023-05-14T00:37:23.828Z,2080.00
2023-05-14T00:38:23.890Z,2076.00
2023-05-14T00:39:23.969Z,2080.00
2023-05-14T00:40:24.233Z,2066.00
2023-05-14T00:41:24.062Z,2059.00
2023-05-14T00:42:24.108Z,2048.00
2023-05-14T00:43:24.173Z,2047.00
2023-05-14T00:44:24.220Z,2032.00
2023-05-14T00:45:24.288Z,2022.00
2023-05-14T00:46:24.347Z,2010.00
2023-05-14T00:47:24.379Z,2024.00
2023-05-14T00:48:24.444Z,2006.00
2023-05-14T00:49:24.473Z,1998.00
2023-05-14T00:50:24.729Z,1995.00
2023-05-14T00:51:24.566Z,1973.00
2023-05-14T00:52:24.655Z,1961.00
2023-05-14T00:53:24.696Z,1975.00
2023-05-14T00:54:24.762Z,1996.00
2023-05-14T00:55:24.790Z,1991.00
2023-05-14T00:56:24.840Z,1972.00
2023-05-14T00:57:24.913Z,1985.00
2023-05-14T00:58:24.970Z,1991.00
2023-05-14T00:59:25.005Z,1970.00
2023-05-14T01:00:25.244Z,1981.00
2023-05-14T01:01:25.196Z,1970.00
2023-05-14T01:02:25.199Z,1973.00
2023-05-14T01:03:25.297Z,1966.00
2023-05-14T01:04:25.263Z,1968.00
2023-05-14T01:05:25.310Z,1970.00
2023-05-14T01:06:25.377Z,1947.00
2023-05-14T01:07:25.416Z,1932.00
2023-05-14T01:08:25.473Z,1923.00
2023-05-14T01:09:25.516Z,1930.00
2023-05-14T01:10:25.852Z,1929.00
2023-05-14T01:11:25.633Z,1924.00
2023-05-14T01:12:25.685Z,1928.00
2023-05-14T01:13:25.729Z,1919.00
2023-05-14T01:14:25.801Z,1932.00
2023-05-14T01:15:25.834Z,1919.00
2023-05-14T01:16:25.932Z,1926.00
2023-05-14T01:17:25.956Z,1930.00
2023-05-14T01:18:26.080Z,1929.00
2023-05-14T01:19:26.040Z,1934.00
2023-05-14T01:20:26.283Z,1923.00
2023-05-14T01:21:26.150Z,1943.00
2023-05-14T01:22:26.212Z,1940.00
2023-05-14T01:23:26.281Z,1928.00
2023-05-14T01:24:26.327Z,1919.00
2023-05-14T01:25:26.357Z,1916.00
2023-05-14T01:26:26.411Z,1915.00
2023-05-14T01:27:26.466Z,1936.00
2023-05-14T01:28:26.554Z,1943.00
2023-05-14T01:29:26.596Z,1928.00
2023-05-14T01:30:26.786Z,1913.00
2023-05-14T01:31:26.703Z,1911.00
2023-05-14T01:32:26.852Z,1913.00
2023-05-14T01:33:26.820Z,1942.00
2023-05-14T01:34:26.841Z,1942.00
2023-05-14T01:35:26.894Z,1935.00
2023-05-14T01:36:26.957Z,1932.00
2023-05-14T01:37:27.000Z,1938.00
2023-05-14T01:38:27.045Z,1915.00
2023-05-14T01:39:27.109Z,1924.00
2023-05-14T01:40:27.144Z,1958.00
2023-05-14T01:41:27.207Z,1955.00
2023-05-14T01:42:27.287Z,1934.00
2023-05-14T01:43:27.333Z,1953.00
2023-05-14T01:44:27.377Z,1942.00
2023-05-14T01:45:27.434Z,1946.00
2023-05-14T01:46:27.531Z,1949.00
2023-05-14T01:47:27.520Z,1952.00
2023-05-14T01:48:27.595Z,1944.00
2023-05-14T01:49:27.639Z,1939.00
2023-05-14T01:50:27.671Z,1931.00
2023-05-14T01:51:27.720Z,1937.00
2023-05-14T01:52:27.769Z,1937.00
2023-05-14T01:53:27.828Z,1961.00
2023-05-14T01:54:27.907Z,1935.00
2023-05-14T01:55:27.940Z,1933.00
2023-05-14T01:56:27.996Z,1938.00
2023-05-14T01:57:28.039Z,1927.00
2023-05-14T01:58:28.098Z,1947.00
2023-05-14T01:59:28.176Z,1937.00
2023-05-14T02:00:28.234Z,1927.00
2023-05-14T02:01:28.285Z,1920.00
2023-05-14T02:02:28.396Z,1923.00
2023-05-14T02:03:28.367Z,1903.00
2023-05-14T02:04:28.423Z,1915.00
2023-05-14T02:05:28.467Z,1901.00
2023-05-14T02:06:28.519Z,1892.00
2023-05-14T02:07:28.558Z,1878.00
2023-05-14T02:08:28.601Z,1865.00
2023-05-14T02:09:28.664Z,1878.00
2023-05-14T02:10:28.745Z,1880.00
2023-05-14T02:11:28.763Z,1878.00
2023-05-14T02:12:28.823Z,1867.00
2023-05-14T02:13:28.865Z,1858.00
2023-05-14T02:14:28.941Z,1853.00
2023-05-14T02:15:28.983Z,1888.00
2023-05-14T02:16:29.044Z,1855.00
2023-05-14T02:17:29.103Z,1857.00
2023-05-14T02:18:29.128Z,1870.00
2023-05-14T02:19:29.162Z,1849.00
2023-05-14T02:20:29.214Z,1852.00
2023-05-14T02:21:29.275Z,1838.00
2023-05-14T02:22:29.326Z,1820.00
2023-05-14T02:23:40.361Z,1836.00
2023-05-14T02:24:30.368Z,1837.00
2023-05-14T02:25:29.380Z,1840.00
2023-05-14T02:26:29.360Z,1837.00
2023-05-14T02:27:29.369Z,1850.00
2023-05-14T02:28:29.364Z,1858.00
2023-05-14T02:29:29.347Z,1848.00
2023-05-14T02:30:29.346Z,1837.00
2023-05-14T02:31:29.385Z,1833.00
2023-05-14T02:32:29.373Z,1829.00
2023-05-14T02:33:29.390Z,1837.00
2023-05-14T02:34:29.418Z,1841.00
2023-05-14T02:35:29.471Z,1831.00
2023-05-14T02:36:29.539Z,1817.00
2023-05-14T02:37:29.550Z,1816.00
2023-05-14T02:38:29.611Z,1824.00
2023-05-14T02:39:29.672Z,1814.00
2023-05-14T02:40:29.723Z,1832.00
2023-05-14T02:41:29.760Z,1827.00
2023-05-14T02:42:29.840Z,1823.00
2023-05-14T02:43:29.867Z,1806.00
2023-05-14T02:44:30.035Z,1815.00
2023-05-14T02:45:29.993Z,1812.00
2023-05-14T02:46:30.095Z,1815.00
2023-05-14T02:47:30.113Z,1806.00
2023-05-14T02:48:30.153Z,1809.00
2023-05-14T02:49:30.205Z,1798.00
2023-05-14T02:50:30.285Z,1799.00
2023-05-14T02:51:30.318Z,1776.00
2023-05-14T02:52:30.372Z,1769.00
2023-05-14T02:53:30.431Z,1764.00
2023-05-14T02:54:30.485Z,1774.00
2023-05-14T02:55:30.526Z,1775.00
2023-05-14T02:56:30.590Z,1779.00
2023-05-14T02:57:30.632Z,1774.00
2023-05-14T02:58:30.684Z,1784.00
2023-05-14T02:59:30.724Z,1794.00
2023-05-14T03:00:30.772Z,1777.00
2023-05-14T03:01:30.862Z,1772.00
2023-05-14T03:02:31.000Z,1767.00
2023-05-14T03:03:30.956Z,1769.00
2023-05-14T03:04:30.989Z,1766.00
2023-05-14T03:05:31.364Z,1768.00
2023-05-14T03:06:31.104Z,1774.00
2023-05-14T03:07:31.152Z,1762.00
2023-05-14T03:08:31.194Z,1765.00
2023-05-14T03:09:31.246Z,1767.00
2023-05-14T03:10:31.312Z,1756.00
2023-05-14T03:11:31.346Z,1773.00
2023-05-14T03:12:31.434Z,1769.00
2023-05-14T03:13:31.466Z,1766.00
2023-05-14T03:14:31.541Z,1753.00
2023-05-14T03:15:31.574Z,1743.00
2023-05-14T03:16:31.679Z,1748.00
2023-05-14T03:17:31.705Z,1756.00
2023-05-14T03:18:31.765Z,1755.00
2023-05-14T03:19:31.808Z,1753.00
2023-05-14T03:20:31.839Z,1763.00
2023-05-14T03:21:31.903Z,1759.00
2023-05-14T03:22:31.959Z,1754.00
2023-05-14T03:23:32.012Z,1759.00
2023-05-14T03:24:32.049Z,1750.00
2023-05-14T03:25:32.126Z,1759.00
2023-05-14T03:26:32.150Z,1760.00
2023-05-14T03:27:32.209Z,1776.00
2023-05-14T03:28:32.267Z,1770.00
2023-05-14T03:29:32.293Z,1761.00
2023-05-14T03:30:32.436Z,1763.00
2023-05-14T03:31:32.407Z,1758.00
2023-05-14T03:32:32.495Z,1746.00
2023-05-14T03:33:32.519Z,1742.00
2023-05-14T03:34:32.579Z,1751.00
2023-05-14T03:35:32.671Z,1757.00
2023-05-14T03:36:32.696Z,1780.00
2023-05-14T03:37:32.736Z,1759.00
2023-05-14T03:38:32.782Z,1760.00
2023-05-14T03:39:32.835Z,1749.00
2023-05-14T03:40:32.905Z,1738.00
2023-05-14T03:41:32.972Z,1744.00
2023-05-14T03:42:32.991Z,1743.00
2023-05-14T03:43:33.047Z,1744.00
2023-05-14T03:44:33.094Z,1738.00
2023-05-14T03:45:33.166Z,1738.00
2023-05-14T03:46:33.238Z,1745.00
2023-05-14T03:47:33.258Z,1738.00
2023-05-14T03:48:33.361Z,1742.00
2023-05-14T03:49:33.376Z,1742.00
2023-05-14T03:50:33.428Z,1744.00
2023-05-14T03:51:33.479Z,1720.00
2023-05-14T03:52:33.531Z,1728.00
2023-05-14T03:53:33.585Z,1725.00
2023-05-14T03:54:33.624Z,1727.00
2023-05-14T03:55:33.716Z,1728.00
2023-05-14T03:56:33.740Z,1723.00
2023-05-14T03:57:33.807Z,1714.00
2023-05-14T03:58:33.868Z,1716.00
2023-05-14T03:59:33.911Z,1708.00
2023-05-14T04:00:33.958Z,1701.00
2023-05-14T04:01:34.004Z,1692.00
2023-05-14T04:02:34.182Z,1684.00
2023-05-14T04:03:34.338Z,1687.00
2023-05-14T04:04:34.212Z,1707.00
2023-05-14T04:05:34.219Z,1707.00
2023-05-14T04:06:34.275Z,1694.00
2023-05-14T04:07:34.306Z,1697.00
2023-05-14T04:08:34.380Z,1685.00
2023-05-14T04:09:34.416Z,1699.00
2023-05-14T04:10:34.477Z,1696.00
2023-05-14T04:11:34.549Z,1697.00
2023-05-14T04:12:34.603Z,1687.00
2023-05-14T04:13:34.656Z,1678.00
2023-05-14T04:15:42.146Z,500.00
2023-05-14T04:16:42.343Z,500.00
2023-05-14T04:17:42.118Z,500.00
2023-05-14T04:18:42.187Z,500.00
2023-05-14T04:19:42.100Z,500.00
2023-05-14T04:20:42.102Z,500.00
2023-05-14T04:21:42.080Z,503.00
2023-05-14T04:22:42.093Z,499.00
2023-05-14T04:23:42.089Z,500.00
2023-05-14T04:24:42.077Z,500.00
2023-05-14T04:25:42.107Z,500.00
2023-05-14T04:26:42.078Z,504.00
2023-05-14T04:27:42.050Z,503.00
2023-05-14T04:28:42.045Z,504.00
2023-05-14T04:29:42.038Z,500.00
2023-05-14T04:30:42.033Z,503.00
2023-05-14T04:31:42.090Z,500.00
2023-05-14T04:32:42.044Z,504.00
2023-05-14T04:33:42.012Z,503.00
2023-05-14T04:34:42.005Z,502.00
2023-05-14T04:35:42.002Z,500.00
2023-05-14T04:36:41.990Z,506.00
2023-05-14T04:37:41.967Z,500.00
2023-05-14T04:38:41.961Z,503.00
2023-05-14T04:39:41.956Z,503.00
2023-05-14T04:40:41.978Z,506.00
2023-05-14T04:41:41.963Z,501.00
2023-05-14T04:42:41.958Z,505.00
2023-05-14T04:43:41.929Z,509.00
2023-05-14T04:44:41.934Z,504.00
2023-05-14T04:45:41.931Z,504.00
2023-05-14T04:46:41.913Z,502.00
2023-05-14T04:47:42.031Z,500.00
2023-05-14T04:48:41.897Z,504.00
2023-05-14T04:49:41.962Z,501.00
2023-05-14T04:50:41.878Z,500.00
2023-05-14T04:51:41.888Z,502.00
2023-05-14T04:52:41.859Z,500.00
2023-05-14T04:53:41.928Z,504.00
2023-05-14T04:54:42.030Z,513.00
2023-05-14T04:55:42.019Z,513.00
2023-05-14T04:56:42.084Z,500.00
2023-05-14T04:57:42.135Z,505.00
2023-05-14T04:58:42.178Z,506.00
2023-05-14T04:59:42.227Z,509.00
2023-05-14T05:00:42.272Z,508.00
2023-05-14T05:01:42.428Z,503.00
2023-05-14T05:02:42.449Z,500.00
2023-05-14T05:03:42.470Z,504.00
2023-05-14T05:04:42.476Z,502.00
2023-05-14T05:05:42.532Z,507.00
2023-05-14T05:06:42.598Z,503.00
2023-05-14T05:07:42.644Z,502.00
2023-05-14T05:08:42.703Z,506.00
2023-05-14T05:09:42.740Z,505.00
2023-05-14T05:10:42.815Z,505.00
2023-05-14T05:11:42.854Z,503.00
2023-05-14T05:12:42.905Z,505.00
2023-05-14T05:13:42.953Z,503.00
2023-05-14T05:14:43.009Z,506.00
2023-05-14T05:15:43.089Z,503.00
2023-05-14T05:16:43.143Z,506.00
2023-05-14T05:17:43.233Z,500.00
2023-05-14T05:18:43.248Z,502.00
2023-05-14T05:19:44.419Z,507.00
2023-05-14T05:20:43.339Z,507.00
2023-05-14T05:21:43.421Z,503.00
2023-05-14T05:22:43.438Z,504.00
2023-05-14T05:23:43.491Z,503.00
2023-05-14T05:24:43.545Z,504.00
2023-05-14T05:25:43.584Z,502.00
2023-05-14T05:26:43.626Z,506.00
2023-05-14T05:27:43.710Z,505.00
2023-05-14T05:28:43.734Z,503.00
2023-05-14T05:29:43.775Z,507.00
2023-05-14T05:30:43.840Z,506.00
2023-05-14T05:31:43.901Z,501.00
2023-05-14T05:32:43.996Z,507.00
2023-05-14T05:33:43.974Z,503.00
2023-05-14T05:34:44.057Z,508.00
2023-05-14T05:35:44.092Z,510.00
2023-05-14T05:36:44.141Z,507.00
2023-05-14T05:37:44.202Z,508.00
2023-05-14T05:38:44.254Z,503.00
2023-05-14T05:39:44.282Z,500.00
2023-05-14T05:40:44.336Z,506.00
2023-05-14T05:41:44.390Z,501.00
2023-05-14T05:42:44.433Z,504.00
2023-05-14T05:43:44.476Z,505.00
2023-05-14T05:44:44.513Z,500.00
2023-05-14T05:45:44.578Z,500.00
2023-05-14T05:46:44.658Z,503.00
2023-05-14T05:47:44.707Z,505.00
2023-05-14T05:48:44.703Z,504.00
2023-05-14T05:49:44.776Z,506.00
2023-05-14T05:50:44.853Z,501.00
2023-05-14T05:51:44.871Z,501.00
2023-05-14T05:52:44.905Z,501.00
2023-05-14T05:53:44.982Z,502.00
2023-05-14T05:54:45.016Z,510.00
2023-05-14T05:55:45.061Z,513.00
2023-05-14T05:56:45.123Z,506.00
2023-05-14T05:57:45.185Z,508.00
2023-05-14T05:58:45.236Z,504.00
2023-05-14T05:59:45.293Z,509.00
2023-05-14T06:00:45.331Z,512.00
2023-05-14T06:01:45.410Z,512.00
2023-05-14T06:02:45.541Z,506.00
2023-05-14T06:03:47.668Z,501.00
2023-05-14T06:04:45.525Z,504.00
2023-05-14T06:05:45.552Z,503.00
2023-05-14T06:06:45.459Z,505.00
2023-05-14T06:07:45.459Z,507.00
2023-05-14T06:08:45.473Z,510.00
2023-05-14T06:09:45.475Z,508.00
2023-05-14T06:10:46.910Z,513.00
2023-05-14T06:11:45.443Z,513.00
2023-05-14T06:12:45.435Z,513.00
2023-05-14T06:13:45.433Z,514.00
2023-05-14T06:14:45.424Z,514.00
2023-05-14T06:15:45.400Z,511.00
2023-05-14T06:16:45.417Z,509.00
2023-05-14T06:17:45.439Z,508.00
2023-05-14T06:18:45.515Z,511.00
2023-05-14T06:19:45.534Z,510.00
2023-05-14T06:20:45.581Z,515.00
2023-05-14T06:21:45.633Z,517.00
2023-05-14T06:22:45.693Z,514.00
2023-05-14T06:23:45.710Z,510.00
2023-05-14T06:24:45.805Z,507.00
2023-05-14T06:25:45.816Z,511.00
2023-05-14T06:26:45.838Z,512.00
2023-05-14T06:27:45.890Z,509.00
2023-05-14T06:28:45.936Z,508.00
2023-05-14T06:29:45.996Z,513.00
2023-05-14T06:30:46.047Z,509.00
2023-05-14T06:31:46.093Z,505.00
2023-05-14T06:32:46.168Z,512.00
2023-05-14T06:33:46.182Z,515.00
2023-05-14T06:34:46.227Z,514.00
2023-05-14T06:35:46.284Z,516.00
2023-05-14T06:36:46.308Z,520.00
2023-05-14T06:37:46.370Z,522.00
2023-05-14T06:38:46.404Z,528.00
2023-05-14T06:39:46.448Z,531.00
2023-05-14T06:40:46.503Z,529.00
2023-05-14T06:41:46.544Z,532.00
2023-05-14T06:42:46.567Z,523.00
2023-05-14T06:43:46.623Z,519.00
2023-05-14T06:44:46.671Z,514.00
2023-05-14T06:45:46.783Z,512.00
2023-05-14T06:46:46.734Z,515.00
2023-05-14T06:47:46.835Z,521.00
2023-05-14T06:48:46.825Z,522.00
2023-05-14T06:49:46.831Z,522.00
2023-05-14T06:50:46.907Z,520.00
2023-05-14T06:51:46.924Z,512.00
2023-05-14T06:52:46.976Z,506.00
2023-05-14T06:53:46.989Z,500.00
2023-05-14T06:54:47.017Z,500.00
2023-05-14T06:55:47.071Z,503.00
2023-05-14T06:56:47.126Z,506.00
2023-05-14T06:57:47.154Z,510.00
2023-05-14T06:58:47.159Z,506.00
2023-05-14T06:59:47.208Z,501.00
2023-05-14T07:00:47.250Z,505.00
2023-05-14T07:01:47.344Z,500.00
2023-05-14T07:02:47.342Z,502.00
2023-05-14T07:03:47.377Z,506.00
2023-05-14T07:04:47.364Z,503.00
2023-05-14T07:05:47.386Z,503.00
2023-05-14T07:06:47.453Z,503.00
2023-05-14T07:07:47.469Z,504.00
2023-05-14T07:08:47.491Z,510.00
2023-05-14T07:09:47.508Z,506.00
2023-05-14T07:10:47.535Z,509.00
2023-05-14T07:11:47.575Z,505.00
2023-05-14T07:12:47.609Z,511.00
2023-05-14T07:13:47.623Z,514.00
2023-05-14T07:14:47.664Z,512.00
2023-05-14T07:15:47.717Z,514.00
2023-05-14T07:16:47.786Z,520.00
2023-05-14T07:17:47.751Z,530.00
2023-05-14T07:18:47.786Z,529.00
2023-05-14T07:19:47.808Z,535.00
2023-05-14T07:20:47.819Z,537.00
2023-05-14T07:21:47.858Z,539.00
2023-05-14T07:22:47.857Z,544.00
2023-05-14T07:23:47.888Z,544.00
2023-05-14T07:24:47.904Z,544.00
2023-05-14T07:25:47.937Z,542.00
2023-05-14T07:26:47.998Z,540.00
2023-05-14T07:27:47.990Z,531.00
2023-05-14T07:28:48.012Z,543.00
2023-05-14T07:29:48.046Z,543.00
2023-05-14T07:30:48.030Z,535.00
2023-05-14T07:31:48.176Z,527.00
2023-05-14T07:32:48.146Z,524.00
2023-05-14T07:33:48.083Z,516.00
2023-05-14T07:34:48.131Z,514.00
2023-05-14T07:35:48.134Z,507.00
2023-05-14T07:36:48.142Z,503.00
2023-05-14T07:37:48.151Z,500.00
2023-05-14T07:38:48.152Z,502.00
2023-05-14T07:39:48.170Z,503.00
2023-05-14T07:40:48.164Z,517.00
2023-05-14T07:41:48.174Z,523.00
2023-05-14T07:42:48.210Z,532.00
2023-05-14T07:43:48.210Z,534.00
2023-05-14T07:44:48.214Z,533.00
2023-05-14T07:45:48.244Z,524.00
2023-05-14T07:46:48.239Z,512.00
2023-05-14T07:47:48.396Z,510.00
2023-05-14T07:48:48.253Z,501.00
2023-05-14T07:49:48.303Z,506.00
2023-05-14T07:50:48.301Z,505.00
2023-05-14T07:51:48.306Z,500.00
2023-05-14T07:52:48.322Z,503.00
2023-05-14T07:53:48.334Z,506.00
2023-05-14T07:54:50.594Z,501.00
2023-05-14T07:55:48.334Z,500.00
2023-05-14T07:56:48.370Z,505.00
2023-05-14T07:57:48.336Z,511.00
2023-05-14T07:58:48.332Z,517.00
2023-05-14T07:59:48.382Z,518.00
2023-05-14T08:00:48.421Z,528.00
2023-05-14T08:01:48.433Z,529.00
2023-05-14T08:02:48.526Z,534.00
2023-05-14T08:03:48.499Z,531.00
2023-05-14T08:04:48.478Z,537.00
2023-05-14T08:05:48.581Z,538.00
2023-05-14T08:06:48.641Z,536.00
2023-05-14T08:07:48.660Z,537.00
2023-05-14T08:08:48.614Z,541.00
2023-05-14T08:09:48.618Z,547.00
2023-05-14T08:10:48.705Z,551.00
2023-05-14T08:11:48.672Z,559.00
2023-05-14T08:12:48.655Z,556.00
2023-05-14T08:13:48.650Z,565.00
2023-05-14T08:14:48.672Z,574.00
2023-05-14T08:15:48.670Z,569.00
2023-05-14T08:16:48.858Z,568.00
2023-05-14T08:17:48.919Z,570.00
2023-05-14T08:18:48.962Z,564.00
2023-05-14T08:19:48.922Z,569.00
2023-05-14T08:20:48.973Z,566.00
2023-05-14T08:21:49.025Z,552.00
2023-05-14T08:22:49.039Z,557.00
2023-05-14T08:23:49.070Z,556.00
2023-05-14T08:24:49.176Z,562.00
2023-05-14T08:25:49.224Z,558.00
2023-05-14T08:26:49.293Z,553.00
2023-05-14T08:27:49.271Z,544.00
2023-05-14T08:28:49.324Z,525.00
2023-05-14T08:29:49.353Z,512.00
2023-05-14T08:30:49.442Z,514.00
2023-05-14T08:31:49.456Z,508.00
2023-05-14T08:32:49.470Z,504.00
2023-05-14T08:33:49.529Z,508.00
2023-05-14T08:34:49.619Z,505.00
2023-05-14T08:35:49.680Z,530.00
2023-05-14T08:36:49.776Z,543.00
2023-05-14T08:37:49.802Z,542.00
2023-05-14T08:38:49.882Z,554.00
2023-05-14T08:39:49.961Z,533.00
2023-05-14T08:40:50.052Z,564.00
2023-05-14T08:41:50.117Z,563.00
2023-05-14T08:42:50.154Z,556.00
2023-05-14T08:43:50.207Z,539.00
2023-05-14T08:44:50.307Z,539.00
2023-05-14T08:45:50.329Z,545.00
2023-05-14T08:46:50.388Z,550.00
2023-05-14T08:47:50.579Z,542.00
2023-05-14T08:48:50.573Z,547.00
2023-05-14T08:49:50.544Z,562.00
2023-05-14T08:50:50.611Z,556.00
2023-05-14T08:51:50.681Z,544.00
2023-05-14T08:52:50.715Z,541.00
2023-05-14T08:53:50.777Z,554.00
2023-05-14T08:54:50.827Z,544.00
2023-05-14T08:55:50.914Z,545.00
2023-05-14T08:56:51.868Z,555.00
2023-05-14T08:57:50.967Z,528.00
2023-05-14T08:58:51.033Z,530.00
2023-05-14T08:59:51.069Z,524.00
2023-05-14T09:00:51.138Z,536.00
2023-05-14T09:01:51.179Z,517.00
2023-05-14T09:02:51.257Z,558.00
2023-05-14T09:03:51.272Z,529.00
2023-05-14T09:04:51.274Z,545.00
2023-05-14T09:05:51.298Z,528.00
2023-05-14T09:06:51.313Z,527.00
2023-05-14T09:07:51.338Z,517.00
2023-05-14T09:08:51.373Z,522.00
2023-05-14T09:09:51.420Z,516.00
2023-05-14T09:10:51.503Z,508.00
2023-05-14T09:11:51.463Z,500.00
2023-05-14T09:12:51.497Z,519.00
2023-05-14T09:13:51.541Z,502.00
2023-05-14T09:14:51.547Z,521.00
2023-05-14T09:15:51.588Z,518.00
2023-05-14T09:16:51.684Z,508.00
2023-05-14T09:17:51.661Z,512.00
2023-05-14T09:18:51.640Z,523.00
2023-05-14T09:19:51.622Z,504.00
2023-05-14T09:20:51.616Z,505.00
2023-05-14T09:21:51.626Z,506.00
2023-05-14T09:22:51.642Z,500.00
2023-05-14T09:23:51.653Z,514.00
2023-05-14T09:24:51.691Z,514.00
2023-05-14T09:25:51.672Z,522.00
2023-05-14T09:26:51.674Z,517.00
2023-05-14T09:27:51.699Z,512.00
2023-05-14T09:28:51.689Z,509.00
2023-05-14T09:29:51.687Z,512.00
2023-05-14T09:30:51.690Z,515.00
2023-05-14T09:31:51.893Z,509.00
2023-05-14T09:32:51.691Z,511.00
2023-05-14T09:33:51.669Z,518.00
2023-05-14T09:34:51.688Z,510.00
2023-05-14T09:35:51.672Z,521.00
2023-05-14T09:36:51.690Z,528.00
2023-05-14T09:37:51.708Z,528.00
2023-05-14T09:38:51.711Z,524.00
2023-05-14T09:39:51.720Z,534.00
2023-05-14T09:40:51.780Z,541.00
2023-05-14T09:41:51.771Z,535.00
2023-05-14T09:42:51.753Z,537.00
2023-05-14T09:43:51.762Z,538.00
2023-05-14T09:44:51.799Z,537.00
2023-05-14T09:45:51.819Z,519.00
2023-05-14T09:46:51.848Z,510.00
2023-05-14T09:47:51.975Z,500.00
2023-05-14T09:48:51.868Z,520.00
2023-05-14T09:49:51.880Z,502.00
2023-05-14T09:50:51.886Z,506.00
2023-05-14T09:51:51.889Z,505.00
2023-05-14T09:52:51.905Z,500.00
2023-05-14T09:53:51.906Z,515.00
2023-05-14T09:54:51.937Z,511.00
2023-05-14T09:55:51.924Z,505.00
2023-05-14T09:56:52.960Z,509.00
2023-05-14T09:57:52.049Z,504.00
2023-05-14T09:58:52.054Z,513.00
2023-05-14T09:59:52.069Z,516.00
2023-05-14T10:00:52.117Z,509.00
2023-05-14T10:01:52.105Z,511.00
2023-05-14T10:02:52.184Z,514.00
2023-05-14T10:03:52.179Z,518.00
2023-05-14T10:04:52.220Z,520.00
2023-05-14T10:05:52.168Z,506.00
2023-05-14T10:06:52.186Z,515.00
2023-05-14T10:07:52.161Z,514.00
2023-05-14T10:08:52.182Z,505.00
2023-05-14T10:09:52.184Z,505.00
2023-05-14T10:10:52.187Z,500.00
2023-05-14T10:11:52.193Z,512.00
2023-05-14T10:12:52.200Z,517.00
2023-05-14T10:13:52.199Z,520.00
2023-05-14T10:14:52.190Z,508.00
2023-05-14T10:15:52.203Z,506.00
2023-05-14T10:16:52.208Z,505.00
2023-05-14T10:17:52.244Z,508.00
2023-05-14T10:18:52.247Z,512.00
2023-05-14T10:19:52.193Z,514.00
2023-05-14T10:20:52.204Z,509.00
2023-05-14T10:21:52.215Z,500.00
2023-05-14T10:22:52.229Z,500.00
2023-05-14T10:23:52.196Z,505.00
2023-05-14T10:24:52.207Z,515.00
2023-05-14T10:25:52.214Z,502.00
2023-05-14T10:26:52.218Z,507.00
2023-05-14T10:27:52.223Z,507.00
2023-05-14T10:28:52.209Z,512.00
2023-05-14T10:29:52.228Z,514.00
2023-05-14T10:30:52.273Z,514.00
2023-05-14T10:31:52.239Z,505.00
2023-05-14T10:32:52.288Z,513.00
2023-05-14T10:33:52.240Z,518.00
2023-05-14T10:34:52.249Z,506.00
2023-05-14T10:35:52.236Z,502.00
2023-05-14T10:36:52.231Z,501.00
2023-05-14T10:37:52.246Z,510.00
2023-05-14T10:38:52.248Z,510.00
2023-05-14T10:39:52.257Z,517.00
2023-05-14T10:40:54.174Z,515.00
2023-05-14T10:41:52.279Z,514.00
2023-05-14T10:42:52.256Z,502.00
2023-05-14T10:43:52.235Z,513.00
2023-05-14T10:44:52.277Z,500.00
2023-05-14T10:45:52.249Z,499.00
2023-05-14T10:46:52.312Z,501.00
2023-05-14T10:47:52.308Z,505.00
2023-05-14T10:48:52.263Z,522.00
2023-05-14T10:49:52.263Z,513.00
2023-05-14T10:50:52.310Z,506.00
2023-05-14T10:51:52.312Z,503.00
2023-05-14T10:52:52.274Z,528.00
2023-05-14T10:53:52.276Z,544.00
2023-05-14T10:54:52.276Z,556.00
2023-05-14T10:55:52.285Z,572.00
2023-05-14T10:56:52.282Z,575.00
2023-05-14T10:57:52.307Z,578.00
2023-05-14T10:58:52.295Z,583.00
2023-05-14T10:59:52.296Z,549.00
2023-05-14T11:00:52.320Z,512.00
2023-05-14T11:01:52.358Z,500.00
2023-05-14T11:02:52.347Z,505.00
2023-05-14T11:03:52.391Z,501.00
2023-05-14T11:04:52.344Z,517.00
2023-05-14T11:05:52.328Z,499.00
2023-05-14T11:06:52.355Z,494.00
2023-05-14T11:07:52.371Z,517.00
2023-05-14T11:08:52.378Z,507.00
2023-05-14T11:09:52.385Z,515.00
2023-05-14T11:10:52.382Z,510.00
2023-05-14T11:11:52.401Z,532.00
2023-05-14T11:12:52.393Z,573.00
2023-05-14T11:13:52.422Z,527.00
2023-05-14T11:14:52.430Z,539.00
2023-05-14T11:15:52.438Z,528.00
2023-05-14T11:16:52.508Z,515.00
2023-05-14T11:17:52.493Z,506.00
2023-05-14T11:18:52.492Z,525.00
2023-05-14T11:19:52.471Z,531.00
2023-05-14T11:20:52.453Z,514.00
2023-05-14T11:21:52.474Z,500.00
2023-05-14T11:22:52.519Z,522.00
2023-05-14T11:23:52.501Z,521.00
2023-05-14T11:24:52.545Z,501.00
2023-05-14T11:25:52.577Z,500.00
2023-05-14T11:26:52.538Z,528.00
2023-05-14T11:27:52.559Z,498.00
2023-05-14T11:28:52.573Z,509.00
2023-05-14T11:29:52.584Z,515.00
2023-05-14T11:30:52.571Z,547.00
2023-05-14T11:31:52.631Z,542.00
2023-05-14T11:32:52.661Z,541.00
2023-05-14T11:33:52.633Z,542.00
2023-05-14T11:34:52.645Z,556.00
2023-05-14T11:35:52.637Z,500.00
2023-05-14T11:36:52.674Z,500.00
2023-05-14T11:37:52.717Z,515.00
2023-05-14T11:38:52.862Z,530.00
2023-05-14T11:39:52.717Z,533.00
2023-05-14T11:40:52.732Z,523.00
2023-05-14T11:41:52.782Z,521.00
2023-05-14T11:42:52.766Z,518.00
2023-05-14T11:43:52.785Z,520.00
2023-05-14T11:44:52.819Z,509.00
2023-05-14T11:45:52.891Z,508.00
2023-05-14T11:46:52.861Z,511.00
2023-05-14T11:47:52.885Z,503.00
2023-05-14T11:48:52.910Z,502.00
2023-05-14T11:49:52.939Z,512.00
2023-05-14T11:50:53.049Z,506.00
2023-05-14T11:51:52.973Z,519.00
2023-05-14T11:52:53.049Z,510.00
2023-05-14T11:53:53.044Z,505.00
2023-05-14T11:54:53.051Z,488.00
2023-05-14T11:55:53.093Z,508.00
2023-05-14T11:56:53.115Z,504.00
2023-05-14T11:57:53.163Z,500.00
2023-05-14T11:58:53.181Z,519.00
2023-05-14T11:59:53.209Z,509.00
2023-05-14T12:00:53.234Z,510.00
2023-05-14T12:01:53.254Z,517.00
2023-05-14T12:02:53.342Z,525.00
2023-05-14T12:03:53.429Z,504.00
2023-05-14T12:04:53.420Z,519.00
2023-05-14T12:05:53.387Z,511.00
2023-05-14T12:06:53.411Z,533.00
2023-05-14T12:07:53.476Z,504.00
2023-05-14T12:08:53.481Z,530.00
2023-05-14T12:09:53.500Z,544.00
2023-05-14T12:10:53.544Z,563.00
2023-05-14T12:11:53.593Z,554.00
2023-05-14T12:12:53.615Z,581.00
2023-05-14T12:13:53.632Z,581.00
2023-05-14T12:14:53.676Z,579.00
2023-05-14T12:15:53.759Z,574.00
2023-05-14T12:16:53.725Z,583.00
2023-05-14T12:17:53.817Z,592.00
2023-05-14T12:18:53.819Z,600.00
2023-05-14T12:19:53.863Z,602.00
2023-05-14T12:20:53.887Z,598.00
2023-05-14T12:21:53.894Z,610.00